createdAt,value
2023-03-24T00:02:07.703Z,325.98
2023-03-24T00:04:37.014Z,320.17
2023-03-24T00:08:07.819Z,319.98
2023-03-24T00:11:04.600Z,364.55
2023-03-24T00:13:38.423Z,398.45
2023-03-24T00:16:12.538Z,343.35
2023-03-24T00:18:41.656Z,349.65
2023-03-24T00:21:11.829Z,382.85
2023-03-24T00:23:43.933Z,349.58
2023-03-24T00:26:15.529Z,375.50
2023-03-24T00:28:49.424Z,345.00
2023-03-24T00:31:19.050Z,370.88
2023-03-24T00:33:51.413Z,383.92
2023-03-24T00:36:22.239Z,370.67
2023-03-24T00:38:50.685Z,372.35
2023-03-24T00:41:20.665Z,395.13
2023-03-24T00:43:50.466Z,348.63
2023-03-24T00:46:28.236Z,383.27
2023-03-24T00:49:03.938Z,342.63
2023-03-24T00:51:39.716Z,361.23
2023-03-24T00:54:10.721Z,369.55
2023-03-24T00:59:11.034Z,381.88
2023-03-24T01:01:41.479Z,381.77
2023-03-24T01:04:10.769Z,401.38
2023-03-24T01:06:41.305Z,403.05
2023-03-24T01:09:10.867Z,379.80
2023-03-24T01:11:41.659Z,358.38
2023-03-24T01:21:54.594Z,363.88
2023-03-24T01:24:25.743Z,368.73
2023-03-24T01:26:54.250Z,370.25
2023-03-24T01:29:22.527Z,402.17
2023-03-24T01:31:51.234Z,354.33
2023-03-24T01:34:20.216Z,417.45
2023-03-24T01:36:49.633Z,365.55
2023-03-24T01:39:18.118Z,443.73
2023-03-24T01:41:46.354Z,331.07
2023-03-24T01:44:46.940Z,367.92
2023-03-24T01:47:15.963Z,375.30
2023-03-24T01:49:47.397Z,349.35
2023-03-24T01:52:23.125Z,370.20
2023-03-24T01:55:08.172Z,334.47
2023-03-24T01:57:47.327Z,333.27
2023-03-24T02:00:18.488Z,367.33
2023-03-24T02:03:24.142Z,362.10
2023-03-24T02:06:04.956Z,358.08
2023-03-24T02:10:23.691Z,372.13
2023-03-24T02:12:52.002Z,335.92
2023-03-24T02:15:21.220Z,355.97
2023-03-24T03:55:01.068Z,50.03
2023-03-24T03:57:29.752Z,53.75
2023-03-24T04:00:20.682Z,58.67
2023-03-24T04:04:08.108Z,53.08
2023-03-24T04:07:24.547Z,43.40
2023-03-24T04:10:31.343Z,57.80
2023-03-24T04:13:28.590Z,51.80
2023-03-24T04:16:33.074Z,56.95
2023-03-24T04:19:46.852Z,50.55
2023-03-24T04:22:26.757Z,46.35
2023-03-24T04:25:29.603Z,43.15
2023-03-24T04:28:10.158Z,43.65
2023-03-24T04:30:45.966Z,36.03
2023-03-24T04:33:48.843Z,47.83
2023-03-24T04:36:35.257Z,43.78
2023-03-24T04:39:28.341Z,43.85
2023-03-24T04:42:04.413Z,42.45
2023-03-24T04:44:33.829Z,43.70
2023-03-24T04:47:32.171Z,33.15
2023-03-24T04:50:31.552Z,45.53
2023-03-24T04:53:04.303Z,39.38
2023-03-24T04:55:37.889Z,36.63
2023-03-24T04:58:06.256Z,34.90
2023-03-24T05:00:36.975Z,37.17
2023-03-24T05:03:05.522Z,37.83
2023-03-24T05:05:34.117Z,37.13
2023-03-24T05:08:02.176Z,36.58
2023-03-24T05:10:30.401Z,38.78
2023-03-24T05:12:59.030Z,36.00
2023-03-24T05:15:27.379Z,42.40
2023-03-24T05:18:07.351Z,42.72
2023-03-24T05:20:35.378Z,39.10
2023-03-24T05:23:13.889Z,37.63
2023-03-24T05:25:45.894Z,35.57
2023-03-24T05:28:14.556Z,34.55
2023-03-24T05:30:43.519Z,34.13
2023-03-24T05:33:24.997Z,30.58
2023-03-24T05:35:53.164Z,35.83
2023-03-24T05:38:21.464Z,36.65
2023-03-24T05:40:58.556Z,35.55
2023-03-24T05:43:30.903Z,35.55
2023-03-24T05:46:08.935Z,37.55
2023-03-24T05:48:37.196Z,32.03
2023-03-24T05:51:15.161Z,30.60
2023-03-24T05:53:43.665Z,31.38
2023-03-24T05:56:32.882Z,32.10
2023-03-24T05:59:22.856Z,33.70
2023-03-24T06:01:56.997Z,25.50
2023-03-24T06:04:32.810Z,30.48
2023-03-24T06:07:09.509Z,29.63
2023-03-24T06:09:42.615Z,31.92
2023-03-24T06:12:16.424Z,30.25
2023-03-24T06:14:56.157Z,33.03
2023-03-24T06:17:25.952Z,34.70
2023-03-24T06:20:04.916Z,28.15
2023-03-24T06:22:46.169Z,32.78
2023-03-24T06:25:20.934Z,32.10
2023-03-24T06:28:06.885Z,27.95
2023-03-24T06:30:35.157Z,34.78
2023-03-24T06:33:08.247Z,39.90
2023-03-24T06:35:37.719Z,35.10
2023-03-24T06:38:09.873Z,34.80
2023-03-24T06:40:38.707Z,37.08
2023-03-24T06:43:07.991Z,40.42
2023-03-24T06:45:40.304Z,35.53
2023-03-24T06:48:12.352Z,40.08
2023-03-24T06:50:41.334Z,37.42
2023-03-24T06:53:11.572Z,36.35
2023-03-24T06:55:40.327Z,31.13
2023-03-24T06:58:10.587Z,31.75
2023-03-24T07:01:00.418Z,30.23
2023-03-24T07:03:34.280Z,32.92
2023-03-24T07:06:18.856Z,33.03
2023-03-24T07:08:52.563Z,29.25
2023-03-24T07:11:23.652Z,30.13
2023-03-24T07:13:55.484Z,33.63
2023-03-24T07:16:24.230Z,35.58
2023-03-24T07:19:04.953Z,35.53
2023-03-24T07:21:37.409Z,29.65
2023-03-24T07:24:07.289Z,32.63
2023-03-24T07:26:55.262Z,33.08
2023-03-24T07:29:25.733Z,39.90
2023-03-24T07:32:19.767Z,52.63
2023-03-24T07:34:50.788Z,35.63
2023-03-24T07:37:19.143Z,41.38
2023-03-24T07:39:47.929Z,43.25
2023-03-24T07:42:16.811Z,39.83
2023-03-24T07:45:14.289Z,38.08
2023-03-24T07:47:46.810Z,37.85
2023-03-24T07:50:15.731Z,35.70
2023-03-24T07:52:49.709Z,31.05
2023-03-24T07:55:21.467Z,32.03
2023-03-24T07:58:00.264Z,33.15
2023-03-24T08:00:32.909Z,31.90
2023-03-24T08:03:14.808Z,33.50
2023-03-24T08:06:01.224Z,28.20
2023-03-24T08:08:41.350Z,28.65
2023-03-24T08:11:09.727Z,29.88
2023-03-24T08:13:38.365Z,26.15
2023-03-24T08:16:07.216Z,30.58
2023-03-24T08:18:36.029Z,27.70
2023-03-24T08:21:05.205Z,26.30
2023-03-24T08:23:33.794Z,24.20
2023-03-24T08:26:05.212Z,24.10
2023-03-24T08:28:33.549Z,25.35
2023-03-24T08:31:01.847Z,24.73
2023-03-24T08:33:30.195Z,24.00
2023-03-24T08:36:01.060Z,110.97
2023-03-24T08:38:32.921Z,20.90
2023-03-24T08:41:06.983Z,21.70
2023-03-24T08:43:38.186Z,18.80
2023-03-24T08:46:11.216Z,21.77
2023-03-24T08:48:41.551Z,20.40
2023-03-24T08:51:14.922Z,18.52
2023-03-24T08:53:43.841Z,14.50
2023-03-24T08:56:12.014Z,18.50
2023-03-24T08:58:40.744Z,16.80
2023-03-24T09:01:10.098Z,19.35
2023-03-24T09:03:40.100Z,15.80
2023-03-24T09:06:09.396Z,16.15
2023-03-24T09:08:38.595Z,17.67
2023-03-24T09:11:14.050Z,15.32
2023-03-24T09:13:43.145Z,14.15
2023-03-24T09:16:11.803Z,15.48
2023-03-24T09:18:40.511Z,16.90
2023-03-24T09:21:09.389Z,17.15
2023-03-24T09:23:38.026Z,16.45
2023-03-24T09:26:07.600Z,16.88
2023-03-24T09:28:36.835Z,17.08
2023-03-24T09:31:07.155Z,17.77
2023-03-24T09:33:35.874Z,17.60
2023-03-24T09:36:05.699Z,16.65
2023-03-24T09:38:35.313Z,16.30
2023-03-24T09:41:23.398Z,15.38
2023-03-24T09:43:55.235Z,17.90
2023-03-24T09:46:47.648Z,16.77
2023-03-24T09:49:30.684Z,15.30
2023-03-24T09:52:09.854Z,20.33
2023-03-24T09:54:49.047Z,16.27
2023-03-24T09:57:38.129Z,16.38
2023-03-24T10:00:32.898Z,15.60
2023-03-24T10:03:26.163Z,15.95
2023-03-24T10:06:26.126Z,14.43
2023-03-24T10:09:32.315Z,17.52
2023-03-24T10:12:27.710Z,13.20
2023-03-24T10:15:37.122Z,14.50
2023-03-24T10:18:29.534Z,13.93
2023-03-24T10:21:14.931Z,21.05
2023-03-24T10:24:14.145Z,17.20
2023-03-24T10:27:16.414Z,19.90
2023-03-24T10:29:46.768Z,18.75
2023-03-24T10:32:25.006Z,18.23
2023-03-24T10:35:09.809Z,16.98
2023-03-24T10:37:38.626Z,21.45
2023-03-24T10:40:18.760Z,15.52
2023-03-24T10:43:06.987Z,18.35
2023-03-24T10:45:44.253Z,19.75
2023-03-24T10:48:14.879Z,20.40
2023-03-24T10:50:49.195Z,21.27
2023-03-24T10:53:20.087Z,21.50
2023-03-24T10:55:49.242Z,20.52
2023-03-24T10:58:41.914Z,23.00
2023-03-24T11:01:31.848Z,21.10
2023-03-24T11:04:05.633Z,18.67
2023-03-24T11:06:34.609Z,17.30
2023-03-24T11:09:22.227Z,16.38
2023-03-24T11:11:52.630Z,19.92
2023-03-24T11:14:29.142Z,19.25
2023-03-24T11:17:12.928Z,17.73
2023-03-24T11:19:51.505Z,18.85
2023-03-24T11:25:13.745Z,19.40
2023-03-24T11:27:45.949Z,18.05
2023-03-24T11:30:16.067Z,25.65
2023-03-24T11:32:48.705Z,21.48
2023-03-24T11:35:18.845Z,25.35
2023-03-24T11:37:48.452Z,16.67
2023-03-24T11:40:25.197Z,23.42
2023-03-24T11:43:00.851Z,19.90
2023-03-24T11:45:44.287Z,18.52
2023-03-24T11:48:41.792Z,24.58
2023-03-24T11:51:13.002Z,26.58
2023-03-24T11:53:51.932Z,19.05
2023-03-24T11:56:53.200Z,30.08
2023-03-24T12:00:04.377Z,24.48
2023-03-24T12:02:52.788Z,19.33
2023-03-24T12:05:33.314Z,23.15
2023-03-24T12:08:49.570Z,14.30
2023-03-24T12:11:54.497Z,21.40
2023-03-24T12:15:24.723Z,26.25
2023-03-24T12:18:26.298Z,13.02
2023-03-24T12:21:01.645Z,12.82
2023-03-24T12:23:53.167Z,14.02
2023-03-24T12:26:22.980Z,15.48
2023-03-24T12:29:24.465Z,12.68
2023-03-24T12:32:44.377Z,11.70
2023-03-24T12:35:30.888Z,11.13
2023-03-24T12:38:23.082Z,11.35
2023-03-24T12:41:18.864Z,13.52
2023-03-24T12:44:43.550Z,11.23
2023-03-24T12:47:45.445Z,12.60
2023-03-24T12:53:56.306Z,15.73
2023-03-24T12:56:42.479Z,15.85
2023-03-24T12:59:36.521Z,14.02
2023-03-24T13:02:31.738Z,14.50
2023-03-24T13:05:30.687Z,9.48
2023-03-24T13:08:06.017Z,35.63
2023-03-24T13:10:42.351Z,11.27
2023-03-24T13:13:25.299Z,16.88
2023-03-24T13:16:13.336Z,15.38
2023-03-24T13:18:51.426Z,16.98
2023-03-24T13:21:26.987Z,21.80
2023-03-24T13:24:04.111Z,17.10
2023-03-24T13:26:43.554Z,20.45
2023-03-24T13:29:53.605Z,20.92
2023-03-24T13:32:22.582Z,39.63
2023-03-24T13:35:19.160Z,16.08
2023-03-24T13:38:14.207Z,16.95
2023-03-24T13:40:46.132Z,14.07
2023-03-24T13:43:22.770Z,20.40
2023-03-24T13:46:13.973Z,30.88
2023-03-24T13:48:51.906Z,23.00
2023-03-24T13:51:38.363Z,32.45
2023-03-24T13:54:15.991Z,27.80
2023-03-24T13:57:13.162Z,16.80
2023-03-24T13:59:58.535Z,18.30
2023-03-24T14:02:30.266Z,17.38
2023-03-24T14:05:04.152Z,20.33
2023-03-24T14:07:41.605Z,22.92
2023-03-24T14:10:21.333Z,23.90
2023-03-24T14:12:58.407Z,20.00
2023-03-24T14:15:29.722Z,26.33
2023-03-24T14:18:23.595Z,42.38
2023-03-24T14:20:57.759Z,25.17
2023-03-24T14:23:51.689Z,27.17
2023-03-24T14:26:23.373Z,33.63
2023-03-24T14:31:31.619Z,33.45
2023-03-24T14:34:21.386Z,49.38
2023-03-24T14:37:07.813Z,32.05
2023-03-24T14:39:42.039Z,32.92
2023-03-24T14:42:31.800Z,34.38
2023-03-24T14:45:22.253Z,30.50
2023-03-24T14:48:08.202Z,35.37
2023-03-24T14:50:37.195Z,63.50
2023-03-24T14:53:06.408Z,59.53
2023-03-24T14:55:35.161Z,46.53
2023-03-24T14:58:17.979Z,338.73
2023-03-24T15:01:07.016Z,345.40
2023-03-24T15:03:39.463Z,335.48
2023-03-24T15:06:13.760Z,330.27
2023-03-24T15:08:50.270Z,321.85
2023-03-24T15:22:42.172Z,32.33
2023-03-24T15:25:13.680Z,348.80
2023-03-24T15:27:49.455Z,312.58
2023-03-24T15:30:18.262Z,358.42
2023-03-24T15:32:47.859Z,345.17
2023-03-24T15:35:22.723Z,348.27
2023-03-24T15:37:57.502Z,308.77
2023-03-24T15:40:31.131Z,332.58
2023-03-24T15:43:02.591Z,328.45
2023-03-24T15:45:36.347Z,325.23
2023-03-24T15:48:20.780Z,322.98
2023-03-24T15:51:11.799Z,320.35
2023-03-24T15:53:51.753Z,334.13
2023-03-24T15:56:31.937Z,342.17
2023-03-24T15:59:15.225Z,333.10
2023-03-24T16:01:45.324Z,310.65
2023-03-24T16:04:20.737Z,126.95
2023-03-24T16:43:42.086Z,43.25
2023-03-24T16:46:21.357Z,65.10
2023-03-24T16:48:49.641Z,42.13
2023-03-24T16:51:18.509Z,358.80
2023-03-24T16:53:47.087Z,76.43
2023-03-24T16:56:18.307Z,365.75
2023-03-24T16:58:48.224Z,316.73
2023-03-24T17:01:29.495Z,108.00
2023-03-24T17:04:11.115Z,308.80
2023-03-24T17:06:47.626Z,337.73
2023-03-24T17:09:16.979Z,311.50
2023-03-24T17:11:54.637Z,74.88
2023-03-24T17:14:22.911Z,297.38
2023-03-24T17:16:53.497Z,319.00
2023-03-24T17:37:03.126Z,363.83
2023-03-24T17:39:31.247Z,401.88
2023-03-24T17:42:01.534Z,347.73
2023-03-24T17:44:30.132Z,331.17
2023-03-24T17:46:58.575Z,344.48
2023-03-24T17:49:27.220Z,472.52
2023-03-24T18:01:08.128Z,321.75
2023-03-24T18:03:38.383Z,340.00
2023-03-24T18:06:12.740Z,348.65
2023-03-24T18:08:41.612Z,344.25
2023-03-24T18:11:15.677Z,323.77
2023-03-24T18:13:44.387Z,308.77
2023-03-24T18:16:21.363Z,334.02
2023-03-24T18:18:51.967Z,310.33
2023-03-24T18:21:21.201Z,331.13
2023-03-24T18:23:50.382Z,310.67
2023-03-24T18:26:20.445Z,341.70
2023-03-24T18:28:49.227Z,300.85
2023-03-24T18:31:20.761Z,322.98
2023-03-24T18:33:50.520Z,313.05
2023-03-24T18:36:26.925Z,326.63
2023-03-24T18:39:05.511Z,306.38
2023-03-24T18:41:37.325Z,284.97
2023-03-24T18:44:08.987Z,295.85
2023-03-24T18:53:52.814Z,308.30
2023-03-24T22:21:40.894Z,303.77
2023-03-24T22:24:09.941Z,338.42
2023-03-24T22:26:38.601Z,315.42
2023-03-24T22:29:07.588Z,293.00
2023-03-24T22:49:00.764Z,304.67
2023-03-24T22:51:31.680Z,291.53
2023-03-24T22:54:00.413Z,271.63
2023-03-24T22:56:29.479Z,279.30
2023-03-24T22:58:58.966Z,289.00
2023-03-24T23:01:28.167Z,272.50
2023-03-24T23:03:57.045Z,282.98
2023-03-24T23:06:25.353Z,272.40
2023-03-24T23:08:53.939Z,278.70
2023-03-24T23:40:24.661Z,330.10
